sensor_id;sensor_type;location;lat;lon;timestamp;pressure;altitude;pressure_sealevel;temperature;humidity
36798;BME280;22748;8.426;99.512;2023-06-19T00:00:39;100682.13;;;29.08;67.35
36798;BME280;22748;8.426;99.512;2023-06-19T00:03:09;100684.63;;;29.10;67.47
36798;BME280;22748;8.426;99.512;2023-06-19T00:05:42;100685.84;;;29.07;67.79
36798;BME280;22748;8.426;99.512;2023-06-19T00:08:14;100687.50;;;29.02;67.78
36798;BME280;22748;8.426;99.512;2023-06-19T00:10:52;100683.56;;;28.98;67.96
36798;BME280;22748;8.426;99.512;2023-06-19T00:13:26;100696.19;;;28.97;68.18
36798;BME280;22748;8.426;99.512;2023-06-19T00:15:58;100692.44;;;29.05;68.11
36798;BME280;22748;8.426;99.512;2023-06-19T00:18:29;100694.56;;;29.03;68.50
36798;BME280;22748;8.426;99.512;2023-06-19T00:21:07;100699.31;;;29.07;68.70
36798;BME280;22748;8.426;99.512;2023-06-19T00:23:44;100702.41;;;29.11;68.43
36798;BME280;22748;8.426;99.512;2023-06-19T00:26:15;100704.09;;;29.12;68.64
36798;BME280;22748;8.426;99.512;2023-06-19T00:28:58;100708.63;;;29.18;68.18
36798;BME280;22748;8.426;99.512;2023-06-19T00:31:35;100709.84;;;29.22;68.63
36798;BME280;22748;8.426;99.512;2023-06-19T00:34:18;100711.09;;;29.20;68.20
36798;BME280;22748;8.426;99.512;2023-06-19T00:36:53;100710.47;;;29.24;68.23
36798;BME280;22748;8.426;99.512;2023-06-19T00:39:30;100711.28;;;29.31;67.83
36798;BME280;22748;8.426;99.512;2023-06-19T00:42:01;100702.38;;;29.31;67.96
36798;BME280;22748;8.426;99.512;2023-06-19T00:44:33;100698.47;;;29.33;67.49
36798;BME280;22748;8.426;99.512;2023-06-19T00:47:05;100702.78;;;29.35;67.48
36798;BME280;22748;8.426;99.512;2023-06-19T00:49:36;100708.78;;;29.37;67.38
36798;BME280;22748;8.426;99.512;2023-06-19T00:52:07;100712.09;;;29.39;67.64
36798;BME280;22748;8.426;99.512;2023-06-19T00:54:50;100715.19;;;29.42;67.29
36798;BME280;22748;8.426;99.512;2023-06-19T00:57:25;100713.94;;;29.45;67.34
36798;BME280;22748;8.426;99.512;2023-06-19T00:59:58;100716.81;;;29.50;67.04
36798;BME280;22748;8.426;99.512;2023-06-19T01:02:33;100721.81;;;29.53;66.90
36798;BME280;22748;8.426;99.512;2023-06-19T01:05:05;100717.41;;;29.59;66.92
36798;BME280;22748;8.426;99.512;2023-06-19T01:07:46;100718.44;;;29.64;66.42
36798;BME280;22748;8.426;99.512;2023-06-19T01:13:33;100723.84;;;29.64;66.33
36798;BME280;22748;8.426;99.512;2023-06-19T01:16:19;100725.72;;;29.64;66.75
36798;BME280;22748;8.426;99.512;2023-06-19T01:18:52;100723.84;;;29.64;66.51
36798;BME280;22748;8.426;99.512;2023-06-19T01:21:29;100732.94;;;29.63;66.72
36798;BME280;22748;8.426;99.512;2023-06-19T01:24:03;100735.00;;;29.61;67.00
36798;BME280;22748;8.426;99.512;2023-06-19T01:26:34;100745.97;;;29.66;67.03
36798;BME280;22748;8.426;99.512;2023-06-19T01:29:08;100735.84;;;29.68;67.18
36798;BME280;22748;8.426;99.512;2023-06-19T01:31:50;100738.31;;;29.70;66.84
36798;BME280;22748;8.426;99.512;2023-06-19T01:34:26;100738.72;;;29.73;66.67
36798;BME280;22748;8.426;99.512;2023-06-19T01:37:02;100738.28;;;29.77;66.81
36798;BME280;22748;8.426;99.512;2023-06-19T01:39:38;100739.78;;;29.72;67.12
36798;BME280;22748;8.426;99.512;2023-06-19T01:42:10;100745.16;;;29.72;67.11
36798;BME280;22748;8.426;99.512;2023-06-19T01:44:53;100733.34;;;29.73;67.03
36798;BME280;22748;8.426;99.512;2023-06-19T01:47:25;100740.81;;;29.71;67.12
36798;BME280;22748;8.426;99.512;2023-06-19T01:49:55;100736.22;;;29.79;66.94
36798;BME280;22748;8.426;99.512;2023-06-19T01:52:26;100738.69;;;29.87;66.39
36798;BME280;22748;8.426;99.512;2023-06-19T01:55:00;100742.00;;;29.89;66.59
36798;BME280;22748;8.426;99.512;2023-06-19T01:57:32;100741.56;;;29.92;65.97
36798;BME280;22748;8.426;99.512;2023-06-19T02:00:28;100745.72;;;29.94;66.54
36798;BME280;22748;8.426;99.512;2023-06-19T02:03:21;100747.31;;;30.02;66.29
36798;BME280;22748;8.426;99.512;2023-06-19T02:06:14;100745.66;;;30.08;65.72
36798;BME280;22748;8.426;99.512;2023-06-19T02:09:02;100745.41;;;30.09;65.88
36798;BME280;22748;8.426;99.512;2023-06-19T02:11:34;100740.28;;;30.01;65.78
36798;BME280;22748;8.426;99.512;2023-06-19T02:14:05;100747.69;;;30.12;65.17
36798;BME280;22748;8.426;99.512;2023-06-19T02:16:35;100744.16;;;30.19;65.35
36798;BME280;22748;8.426;99.512;2023-06-19T02:19:05;100742.22;;;30.26;65.43
36798;BME280;22748;8.426;99.512;2023-06-19T02:21:35;100740.59;;;30.25;65.25
36798;BME280;22748;8.426;99.512;2023-06-19T02:24:07;100747.22;;;30.29;65.32
36798;BME280;22748;8.426;99.512;2023-06-19T02:26:40;100748.63;;;30.38;65.41
36798;BME280;22748;8.426;99.512;2023-06-19T02:29:12;100745.03;;;30.44;65.11
36798;BME280;22748;8.426;99.512;2023-06-19T02:31:42;100747.72;;;30.51;65.16
36798;BME280;22748;8.426;99.512;2023-06-19T02:34:11;100741.69;;;30.55;64.41
36798;BME280;22748;8.426;99.512;2023-06-19T02:36:41;100737.94;;;30.57;64.43
36798;BME280;22748;8.426;99.512;2023-06-19T02:39:21;100741.22;;;30.59;64.86
36798;BME280;22748;8.426;99.512;2023-06-19T02:42:03;100749.47;;;30.64;64.65
36798;BME280;22748;8.426;99.512;2023-06-19T02:44:34;100744.69;;;30.66;64.21
36798;BME280;22748;8.426;99.512;2023-06-19T02:47:04;100745.50;;;30.73;64.26
36798;BME280;22748;8.426;99.512;2023-06-19T02:49:35;100750.66;;;30.74;64.31
36798;BME280;22748;8.426;99.512;2023-06-19T02:52:07;100749.81;;;30.74;64.04
36798;BME280;22748;8.426;99.512;2023-06-19T02:54:38;100747.75;;;30.76;63.86
36798;BME280;22748;8.426;99.512;2023-06-19T02:57:12;100747.09;;;30.81;64.06
36798;BME280;22748;8.426;99.512;2023-06-19T02:59:43;100743.97;;;30.84;64.15
36798;BME280;22748;8.426;99.512;2023-06-19T03:02:15;100745.19;;;30.81;64.44
36798;BME280;22748;8.426;99.512;2023-06-19T03:04:51;100747.69;;;30.83;63.98
36798;BME280;22748;8.426;99.512;2023-06-19T03:07:22;100737.34;;;30.86;63.50
36798;BME280;22748;8.426;99.512;2023-06-19T03:10:08;100741.25;;;30.90;63.74
36798;BME280;22748;8.426;99.512;2023-06-19T03:13:07;100744.38;;;30.87;64.09
36798;BME280;22748;8.426;99.512;2023-06-19T03:15:38;100748.72;;;30.88;63.80
36798;BME280;22748;8.426;99.512;2023-06-19T03:18:15;100747.25;;;30.92;63.20
36798;BME280;22748;8.426;99.512;2023-06-19T03:20:45;100749.28;;;30.97;62.83
36798;BME280;22748;8.426;99.512;2023-06-19T03:23:31;100746.34;;;30.99;62.66
36798;BME280;22748;8.426;99.512;2023-06-19T03:26:03;100734.25;;;31.08;62.45
36798;BME280;22748;8.426;99.512;2023-06-19T03:28:36;100732.16;;;31.10;61.31
36798;BME280;22748;8.426;99.512;2023-06-19T03:31:07;100734.19;;;31.14;61.71
36798;BME280;22748;8.426;99.512;2023-06-19T03:33:37;100734.13;;;31.21;61.78
36798;BME280;22748;8.426;99.512;2023-06-19T03:36:09;100722.50;;;31.21;62.28
36798;BME280;22748;8.426;99.512;2023-06-19T03:38:54;100722.06;;;31.24;61.37
36798;BME280;22748;8.426;99.512;2023-06-19T03:41:31;100723.94;;;31.23;61.32
36798;BME280;22748;8.426;99.512;2023-06-19T03:44:13;100725.50;;;31.31;61.29
36798;BME280;22748;8.426;99.512;2023-06-19T03:46:44;100721.53;;;31.33;61.16
36798;BME280;22748;8.426;99.512;2023-06-19T03:49:15;100722.72;;;31.37;61.14
36798;BME280;22748;8.426;99.512;2023-06-19T03:51:46;100720.28;;;31.36;60.65
36798;BME280;22748;8.426;99.512;2023-06-19T03:54:17;100731.22;;;31.41;60.75
36798;BME280;22748;8.426;99.512;2023-06-19T03:56:48;100728.50;;;31.41;60.92
36798;BME280;22748;8.426;99.512;2023-06-19T03:59:24;100727.28;;;31.44;60.70
36798;BME280;22748;8.426;99.512;2023-06-19T04:01:55;100730.56;;;31.46;60.40
36798;BME280;22748;8.426;99.512;2023-06-19T04:04:26;100733.41;;;31.51;60.56
36798;BME280;22748;8.426;99.512;2023-06-19T04:06:56;100729.69;;;31.52;60.36
36798;BME280;22748;8.426;99.512;2023-06-19T04:09:42;100727.13;;;31.57;60.33
36798;BME280;22748;8.426;99.512;2023-06-19T04:12:28;100722.03;;;31.67;61.03
36798;BME280;22748;8.426;99.512;2023-06-19T04:15:26;100705.53;;;31.75;60.51
36798;BME280;22748;8.426;99.512;2023-06-19T04:18:04;100715.44;;;31.82;60.31
36798;BME280;22748;8.426;99.512;2023-06-19T04:20:36;100708.97;;;31.83;59.89
36798;BME280;22748;8.426;99.512;2023-06-19T04:23:08;100710.38;;;31.85;59.91
36798;BME280;22748;8.426;99.512;2023-06-19T04:25:38;100701.66;;;31.83;59.68
36798;BME280;22748;8.426;99.512;2023-06-19T04:28:11;100698.97;;;31.83;59.56
36798;BME280;22748;8.426;99.512;2023-06-19T04:30:45;100693.34;;;31.85;59.14
36798;BME280;22748;8.426;99.512;2023-06-19T04:33:16;100697.69;;;31.86;59.42
36798;BME280;22748;8.426;99.512;2023-06-19T04:35:49;100692.28;;;31.86;59.21
36798;BME280;22748;8.426;99.512;2023-06-19T04:38:20;100688.56;;;31.87;59.25
36798;BME280;22748;8.426;99.512;2023-06-19T04:40:53;100693.94;;;31.87;59.91
36798;BME280;22748;8.426;99.512;2023-06-19T04:43:24;100682.34;;;31.86;62.43
36798;BME280;22748;8.426;99.512;2023-06-19T04:45:57;100690.66;;;31.85;63.53
36798;BME280;22748;8.426;99.512;2023-06-19T04:48:28;100683.16;;;31.87;63.82
36798;BME280;22748;8.426;99.512;2023-06-19T04:50:57;100680.44;;;31.87;63.53
36798;BME280;22748;8.426;99.512;2023-06-19T04:53:31;100675.66;;;31.89;63.04
36798;BME280;22748;8.426;99.512;2023-06-19T04:56:02;100668.97;;;31.91;62.81
36798;BME280;22748;8.426;99.512;2023-06-19T04:58:38;100664.38;;;31.92;62.33
36798;BME280;22748;8.426;99.512;2023-06-19T05:01:15;100664.75;;;31.95;62.46
36798;BME280;22748;8.426;99.512;2023-06-19T05:03:47;100667.22;;;31.97;62.43
36798;BME280;22748;8.426;99.512;2023-06-19T05:06:18;100662.44;;;31.99;61.22
36798;BME280;22748;8.426;99.512;2023-06-19T05:08:49;100654.69;;;32.03;60.41
36798;BME280;22748;8.426;99.512;2023-06-19T05:11:20;100646.38;;;32.04;60.80
36798;BME280;22748;8.426;99.512;2023-06-19T05:13:51;100655.44;;;32.10;60.69
36798;BME280;22748;8.426;99.512;2023-06-19T05:16:30;100654.75;;;32.14;60.90
36798;BME280;22748;8.426;99.512;2023-06-19T05:19:01;100654.88;;;32.20;61.03
36798;BME280;22748;8.426;99.512;2023-06-19T05:21:31;100636.91;;;32.25;61.11
36798;BME280;22748;8.426;99.512;2023-06-19T05:24:02;100631.84;;;32.29;60.58
36798;BME280;22748;8.426;99.512;2023-06-19T05:26:33;100626.44;;;32.29;60.54
36798;BME280;22748;8.426;99.512;2023-06-19T05:29:03;100619.53;;;32.33;60.45
36798;BME280;22748;8.426;99.512;2023-06-19T05:31:38;100621.31;;;32.39;60.98
36798;BME280;22748;8.426;99.512;2023-06-19T05:34:09;100613.09;;;32.46;60.72
36798;BME280;22748;8.426;99.512;2023-06-19T05:36:39;100614.03;;;32.51;60.65
36798;BME280;22748;8.426;99.512;2023-06-19T05:39:12;100614.50;;;32.48;59.77
36798;BME280;22748;8.426;99.512;2023-06-19T05:41:42;100639.91;;;32.47;59.79
36798;BME280;22748;8.426;99.512;2023-06-19T05:44:13;100653.75;;;32.39;60.71
36798;BME280;22748;8.426;99.512;2023-06-19T05:46:47;100660.53;;;32.30;61.55
36798;BME280;22748;8.426;99.512;2023-06-19T05:49:20;100638.53;;;32.14;62.14
36798;BME280;22748;8.426;99.512;2023-06-19T05:51:50;100628.16;;;32.00;62.27
36798;BME280;22748;8.426;99.512;2023-06-19T05:54:21;100623.03;;;31.91;62.32
36798;BME280;22748;8.426;99.512;2023-06-19T05:56:53;100615.50;;;31.82;63.35
36798;BME280;22748;8.426;99.512;2023-06-19T05:59:23;100611.84;;;31.76;63.37
36798;BME280;22748;8.426;99.512;2023-06-19T06:01:56;100597.38;;;31.70;63.58
36798;BME280;22748;8.426;99.512;2023-06-19T06:04:30;100598.66;;;31.68;63.84
36798;BME280;22748;8.426;99.512;2023-06-19T06:07:04;100584.66;;;31.59;64.00
36798;BME280;22748;8.426;99.512;2023-06-19T06:09:33;100581.34;;;31.57;64.53
36798;BME280;22748;8.426;99.512;2023-06-19T06:15:37;100563.06;;;31.59;65.09
36798;BME280;22748;8.426;99.512;2023-06-19T06:18:20;100567.84;;;31.57;65.21
36798;BME280;22748;8.426;99.512;2023-06-19T06:20:50;100571.31;;;31.64;65.35
36798;BME280;22748;8.426;99.512;2023-06-19T06:23:21;100570.84;;;31.67;65.25
36798;BME280;22748;8.426;99.512;2023-06-19T06:25:52;100567.75;;;31.64;65.26
36798;BME280;22748;8.426;99.512;2023-06-19T06:28:28;100560.22;;;31.54;65.91
36798;BME280;22748;8.426;99.512;2023-06-19T06:31:01;100554.34;;;31.57;66.13
36798;BME280;22748;8.426;99.512;2023-06-19T06:33:34;100553.00;;;31.66;66.10
36798;BME280;22748;8.426;99.512;2023-06-19T06:36:04;100543.97;;;31.72;65.95
36798;BME280;22748;8.426;99.512;2023-06-19T06:38:38;100544.09;;;31.77;65.95
36798;BME280;22748;8.426;99.512;2023-06-19T06:41:11;100535.41;;;31.75;66.08
36798;BME280;22748;8.426;99.512;2023-06-19T06:43:43;100521.75;;;31.70;65.94
36798;BME280;22748;8.426;99.512;2023-06-19T06:46:16;100512.03;;;31.69;65.87
36798;BME280;22748;8.426;99.512;2023-06-19T06:48:49;100511.81;;;31.71;65.87
36798;BME280;22748;8.426;99.512;2023-06-19T06:51:19;100522.34;;;31.72;66.07
36798;BME280;22748;8.426;99.512;2023-06-19T06:53:51;100520.72;;;31.71;66.08
36798;BME280;22748;8.426;99.512;2023-06-19T06:56:22;100522.13;;;31.74;66.62
36798;BME280;22748;8.426;99.512;2023-06-19T06:58:53;100525.81;;;31.80;66.44
36798;BME280;22748;8.426;99.512;2023-06-19T07:01:24;100529.53;;;31.78;66.66
36798;BME280;22748;8.426;99.512;2023-06-19T07:03:56;100544.94;;;31.78;66.51
36798;BME280;22748;8.426;99.512;2023-06-19T07:06:27;100551.50;;;31.82;66.61
36798;BME280;22748;8.426;99.512;2023-06-19T07:09:10;100552.69;;;31.86;66.52
36798;BME280;22748;8.426;99.512;2023-06-19T07:11:40;100559.97;;;31.86;66.19
36798;BME280;22748;8.426;99.512;2023-06-19T07:14:10;100547.03;;;31.88;66.24
36798;BME280;22748;8.426;99.512;2023-06-19T07:16:40;100534.50;;;31.82;65.42
36798;BME280;22748;8.426;99.512;2023-06-19T07:19:12;100535.16;;;31.65;64.97
36798;BME280;22748;8.426;99.512;2023-06-19T07:21:43;100538.91;;;31.64;65.00
36798;BME280;22748;8.426;99.512;2023-06-19T07:24:14;100544.66;;;31.68;65.94
36798;BME280;22748;8.426;99.512;2023-06-19T07:26:47;100531.63;;;31.65;66.28
36798;BME280;22748;8.426;99.512;2023-06-19T07:29:17;100522.72;;;31.64;66.56
36798;BME280;22748;8.426;99.512;2023-06-19T07:31:47;100519.84;;;31.59;66.88
36798;BME280;22748;8.426;99.512;2023-06-19T07:34:20;100530.16;;;31.50;67.29
36798;BME280;22748;8.426;99.512;2023-06-19T07:36:51;100522.66;;;31.52;67.08
36798;BME280;22748;8.426;99.512;2023-06-19T07:39:20;100522.44;;;31.54;66.87
36798;BME280;22748;8.426;99.512;2023-06-19T07:41:54;100507.53;;;31.51;67.30
36798;BME280;22748;8.426;99.512;2023-06-19T07:44:25;100501.00;;;31.41;67.23
36798;BME280;22748;8.426;99.512;2023-06-19T07:46:56;100494.19;;;31.38;67.77
36798;BME280;22748;8.426;99.512;2023-06-19T07:49:39;100500.78;;;31.42;67.64
36798;BME280;22748;8.426;99.512;2023-06-19T07:52:10;100498.53;;;31.39;68.04
36798;BME280;22748;8.426;99.512;2023-06-19T07:54:50;100495.44;;;31.35;68.35
36798;BME280;22748;8.426;99.512;2023-06-19T07:57:21;100500.13;;;31.47;68.35
36798;BME280;22748;8.426;99.512;2023-06-19T07:59:54;100509.63;;;31.49;68.49
36798;BME280;22748;8.426;99.512;2023-06-19T08:02:24;100503.63;;;31.47;69.05
36798;BME280;22748;8.426;99.512;2023-06-19T08:04:58;100507.75;;;31.50;68.83
36798;BME280;22748;8.426;99.512;2023-06-19T08:07:29;100500.47;;;31.50;68.22
36798;BME280;22748;8.426;99.512;2023-06-19T08:10:01;100498.25;;;31.47;68.16
36798;BME280;22748;8.426;99.512;2023-06-19T08:12:32;100493.06;;;31.46;67.92
36798;BME280;22748;8.426;99.512;2023-06-19T08:15:03;100494.63;;;31.53;67.98
36798;BME280;22748;8.426;99.512;2023-06-19T08:17:33;100488.63;;;31.51;68.13
36798;BME280;22748;8.426;99.512;2023-06-19T08:20:08;100488.25;;;31.48;67.92
36798;BME280;22748;8.426;99.512;2023-06-19T08:22:38;100479.25;;;31.54;68.39
36798;BME280;22748;8.426;99.512;2023-06-19T08:25:09;100482.53;;;31.56;68.40
36798;BME280;22748;8.426;99.512;2023-06-19T08:27:40;100473.75;;;31.61;68.30
36798;BME280;22748;8.426;99.512;2023-06-19T08:30:12;100474.78;;;31.48;68.35
36798;BME280;22748;8.426;99.512;2023-06-19T08:32:44;100476.13;;;31.39;68.86
36798;BME280;22748;8.426;99.512;2023-06-19T08:35:16;100469.91;;;31.38;68.35
36798;BME280;22748;8.426;99.512;2023-06-19T08:37:48;100474.47;;;31.37;68.63
36798;BME280;22748;8.426;99.512;2023-06-19T08:40:20;100470.47;;;31.40;68.77
36798;BME280;22748;8.426;99.512;2023-06-19T08:42:50;100481.03;;;31.42;68.53
36798;BME280;22748;8.426;99.512;2023-06-19T08:45:20;100479.41;;;31.41;68.90
36798;BME280;22748;8.426;99.512;2023-06-19T08:47:58;100477.69;;;31.46;68.79
36798;BME280;22748;8.426;99.512;2023-06-19T08:50:31;100477.00;;;31.51;68.89
36798;BME280;22748;8.426;99.512;2023-06-19T08:53:03;100480.75;;;31.50;69.24
36798;BME280;22748;8.426;99.512;2023-06-19T08:55:34;100475.59;;;31.48;69.68
36798;BME280;22748;8.426;99.512;2023-06-19T08:58:05;100474.28;;;31.51;69.54
36798;BME280;22748;8.426;99.512;2023-06-19T09:00:35;100483.47;;;31.50;69.51
36798;BME280;22748;8.426;99.512;2023-06-19T09:03:08;100479.13;;;31.49;69.35
36798;BME280;22748;8.426;99.512;2023-06-19T09:05:44;100484.97;;;31.46;69.27
36798;BME280;22748;8.426;99.512;2023-06-19T09:08:18;100484.38;;;31.44;69.02
36798;BME280;22748;8.426;99.512;2023-06-19T09:11:03;100489.34;;;31.47;69.17
36798;BME280;22748;8.426;99.512;2023-06-19T09:13:35;100496.47;;;31.53;69.00
36798;BME280;22748;8.426;99.512;2023-06-19T09:16:07;100500.84;;;31.54;68.88
36798;BME280;22748;8.426;99.512;2023-06-19T09:18:52;100500.56;;;31.44;68.94
36798;BME280;22748;8.426;99.512;2023-06-19T09:21:25;100509.78;;;31.36;68.40
36798;BME280;22748;8.426;99.512;2023-06-19T09:24:03;100501.44;;;31.37;68.56
36798;BME280;22748;8.426;99.512;2023-06-19T09:26:34;100495.59;;;31.41;68.35
36798;BME280;22748;8.426;99.512;2023-06-19T09:29:20;100497.56;;;31.33;67.94
36798;BME280;22748;8.426;99.512;2023-06-19T09:31:51;100495.72;;;31.34;68.14
36798;BME280;22748;8.426;99.512;2023-06-19T09:34:23;100498.63;;;31.32;68.20
36798;BME280;22748;8.426;99.512;2023-06-19T09:36:56;100492.75;;;31.35;68.23
36798;BME280;22748;8.426;99.512;2023-06-19T09:39:28;100498.63;;;31.32;67.99
36798;BME280;22748;8.426;99.512;2023-06-19T09:42:00;100489.94;;;31.30;67.50
36798;BME280;22748;8.426;99.512;2023-06-19T09:44:32;100501.44;;;31.37;67.62
36798;BME280;22748;8.426;99.512;2023-06-19T09:47:04;100495.22;;;31.37;67.55
36798;BME280;22748;8.426;99.512;2023-06-19T09:49:37;100500.94;;;31.47;67.75
36798;BME280;22748;8.426;99.512;2023-06-19T09:52:16;100500.03;;;31.53;67.49
36798;BME280;22748;8.426;99.512;2023-06-19T09:54:49;100502.03;;;31.58;67.19
36798;BME280;22748;8.426;99.512;2023-06-19T09:57:20;100510.25;;;31.63;66.67
36798;BME280;22748;8.426;99.512;2023-06-19T09:59:53;100496.53;;;31.65;66.09
36798;BME280;22748;8.426;99.512;2023-06-19T10:02:26;100499.56;;;31.68;66.34
36798;BME280;22748;8.426;99.512;2023-06-19T10:04:58;100499.00;;;31.66;66.23
36798;BME280;22748;8.426;99.512;2023-06-19T10:07:35;100483.25;;;31.63;66.16
36798;BME280;22748;8.426;99.512;2023-06-19T10:10:07;100477.84;;;31.63;66.47
36798;BME280;22748;8.426;99.512;2023-06-19T10:12:42;100475.28;;;31.68;66.27
36798;BME280;22748;8.426;99.512;2023-06-19T10:15:16;100468.34;;;31.61;65.99
36798;BME280;22748;8.426;99.512;2023-06-19T10:17:49;100477.16;;;31.56;66.28
36798;BME280;22748;8.426;99.512;2023-06-19T10:20:25;100468.94;;;31.63;66.52
36798;BME280;22748;8.426;99.512;2023-06-19T10:23:03;100472.34;;;31.70;65.91
36798;BME280;22748;8.426;99.512;2023-06-19T10:25:34;100472.94;;;31.72;66.15
36798;BME280;22748;8.426;99.512;2023-06-19T10:28:16;100477.84;;;31.63;66.17
36798;BME280;22748;8.426;99.512;2023-06-19T10:30:53;100476.81;;;31.64;66.32
36798;BME280;22748;8.426;99.512;2023-06-19T10:33:25;100481.75;;;31.67;65.71
36798;BME280;22748;8.426;99.512;2023-06-19T10:35:58;100482.56;;;31.68;65.30
36798;BME280;22748;8.426;99.512;2023-06-19T10:38:32;100487.03;;;31.74;65.48
36798;BME280;22748;8.426;99.512;2023-06-19T10:41:03;100486.81;;;31.75;65.32
36798;BME280;22748;8.426;99.512;2023-06-19T10:43:33;100490.09;;;31.77;65.31
36798;BME280;22748;8.426;99.512;2023-06-19T10:46:04;100486.34;;;31.78;65.16
36798;BME280;22748;8.426;99.512;2023-06-19T10:48:35;100485.28;;;31.80;65.01
36798;BME280;22748;8.426;99.512;2023-06-19T10:51:05;100486.34;;;31.78;65.54
36798;BME280;22748;8.426;99.512;2023-06-19T10:53:38;100480.34;;;31.76;65.40
36798;BME280;22748;8.426;99.512;2023-06-19T10:56:09;100484.94;;;31.76;65.19
36798;BME280;22748;8.426;99.512;2023-06-19T10:58:39;100488.91;;;31.73;65.21
36798;BME280;22748;8.426;99.512;2023-06-19T11:01:10;100494.31;;;31.73;65.41
36798;BME280;22748;8.426;99.512;2023-06-19T11:03:41;100490.56;;;31.74;65.31
36798;BME280;22748;8.426;99.512;2023-06-19T11:06:12;100497.47;;;31.70;65.28
36798;BME280;22748;8.426;99.512;2023-06-19T11:08:56;100496.44;;;31.71;65.49
36798;BME280;22748;8.426;99.512;2023-06-19T11:11:37;100502.41;;;31.73;65.54
36798;BME280;22748;8.426;99.512;2023-06-19T11:14:08;100517.56;;;31.74;65.99
36798;BME280;22748;8.426;99.512;2023-06-19T11:16:41;100522.94;;;31.74;65.76
36798;BME280;22748;8.426;99.512;2023-06-19T11:19:16;100530.00;;;31.75;65.71
36798;BME280;22748;8.426;99.512;2023-06-19T11:21:48;100527.91;;;31.77;65.69
36798;BME280;22748;8.426;99.512;2023-06-19T11:24:22;100526.25;;;31.76;65.79
36798;BME280;22748;8.426;99.512;2023-06-19T11:26:52;100527.31;;;31.75;65.47
36798;BME280;22748;8.426;99.512;2023-06-19T11:29:30;100528.81;;;31.71;65.85
36798;BME280;22748;8.426;99.512;2023-06-19T11:32:16;100534.66;;;31.68;66.32
36798;BME280;22748;8.426;99.512;2023-06-19T11:34:50;100532.22;;;31.67;66.57
36798;BME280;22748;8.426;99.512;2023-06-19T11:37:30;100542.38;;;31.53;67.40
36798;BME280;22748;8.426;99.512;2023-06-19T11:40:03;100534.06;;;31.54;67.25
36798;BME280;22748;8.426;99.512;2023-06-19T11:42:55;100536.53;;;31.56;67.22
36798;BME280;22748;8.426;99.512;2023-06-19T11:45:25;100530.41;;;31.49;67.41
36798;BME280;22748;8.426;99.512;2023-06-19T11:47:57;100532.63;;;31.52;67.48
36798;BME280;22748;8.426;99.512;2023-06-19T11:50:28;100530.75;;;31.52;67.60
36798;BME280;22748;8.426;99.512;2023-06-19T11:52:59;100547.75;;;31.53;67.46
36798;BME280;22748;8.426;99.512;2023-06-19T11:55:33;100556.13;;;31.51;67.37
36798;BME280;22748;8.426;99.512;2023-06-19T11:58:04;100563.72;;;31.43;67.97
36798;BME280;22748;8.426;99.512;2023-06-19T12:00:35;100566.91;;;31.51;67.64
36798;BME280;22748;8.426;99.512;2023-06-19T12:03:05;100565.63;;;31.54;67.25
36798;BME280;22748;8.426;99.512;2023-06-19T12:05:35;100563.53;;;31.56;67.75
36798;BME280;22748;8.426;99.512;2023-06-19T12:08:05;100565.03;;;31.52;67.89
36798;BME280;22748;8.426;99.512;2023-06-19T12:10:38;100570.66;;;31.50;67.84
36798;BME280;22748;8.426;99.512;2023-06-19T12:13:09;100568.09;;;31.37;68.03
36798;BME280;22748;8.426;99.512;2023-06-19T12:15:40;100560.81;;;31.37;68.18
36798;BME280;22748;8.426;99.512;2023-06-19T12:18:11;100554.97;;;31.41;67.97
36798;BME280;22748;8.426;99.512;2023-06-19T12:20:42;100572.63;;;31.43;68.47
36798;BME280;22748;8.426;99.512;2023-06-19T12:23:13;100575.31;;;31.43;68.20
36798;BME280;22748;8.426;99.512;2023-06-19T12:25:46;100582.94;;;31.46;68.28
36798;BME280;22748;8.426;99.512;2023-06-19T12:28:17;100567.41;;;31.42;68.52
36798;BME280;22748;8.426;99.512;2023-06-19T12:30:47;100566.69;;;31.34;68.32
36798;BME280;22748;8.426;99.512;2023-06-19T12:33:20;100573.44;;;31.25;68.85
36798;BME280;22748;8.426;99.512;2023-06-19T12:35:51;100570.28;;;31.28;68.53
36798;BME280;22748;8.426;99.512;2023-06-19T12:38:21;100580.59;;;31.31;68.39
36798;BME280;22748;8.426;99.512;2023-06-19T12:40:54;100586.00;;;31.31;68.35
36798;BME280;22748;8.426;99.512;2023-06-19T12:43:24;100587.44;;;31.34;68.30
36798;BME280;22748;8.426;99.512;2023-06-19T12:45:55;100591.19;;;31.33;68.40
36798;BME280;22748;8.426;99.512;2023-06-19T12:48:26;100591.66;;;31.30;68.28
36798;BME280;22748;8.426;99.512;2023-06-19T12:50:56;100592.94;;;31.27;68.54
36798;BME280;22748;8.426;99.512;2023-06-19T12:53:27;100597.72;;;31.25;68.40
36798;BME280;22748;8.426;99.512;2023-06-19T12:56:00;100608.28;;;31.27;68.28
36798;BME280;22748;8.426;99.512;2023-06-19T12:58:31;100608.72;;;31.24;68.57
36798;BME280;22748;8.426;99.512;2023-06-19T13:01:01;100612.69;;;31.03;68.87
36798;BME280;22748;8.426;99.512;2023-06-19T13:03:32;100615.56;;;31.08;68.93
36798;BME280;22748;8.426;99.512;2023-06-19T13:06:02;100619.69;;;31.10;68.68
36798;BME280;22748;8.426;99.512;2023-06-19T13:08:33;100624.41;;;31.15;68.95
36798;BME280;22748;8.426;99.512;2023-06-19T13:11:05;100629.06;;;31.08;68.60
36798;BME280;22748;8.426;99.512;2023-06-19T13:13:36;100632.50;;;31.15;68.65
36798;BME280;22748;8.426;99.512;2023-06-19T13:16:07;100631.88;;;31.13;68.65
36798;BME280;22748;8.426;99.512;2023-06-19T13:18:38;100639.53;;;31.16;68.75
36798;BME280;22748;8.426;99.512;2023-06-19T13:21:09;100636.59;;;31.17;68.64
36798;BME280;22748;8.426;99.512;2023-06-19T13:23:39;100635.78;;;31.17;68.35
36798;BME280;22748;8.426;99.512;2023-06-19T13:26:12;100639.16;;;31.12;68.26
36798;BME280;22748;8.426;99.512;2023-06-19T13:28:43;100645.38;;;31.13;68.48